Time;durP1;ratioP1;P1;durP2;ratioP2;P2;SDS_P1;SDS_P2;PMS_P1;PMS_P2;Temp;Humidity;BMP_temperature;BMP_pressure;BME280_temperature;BME280_humidity;BME280_pressure;Samples;Min_cycle;Max_cycle;Signal;HPM_P1;HPM_P2
2022/04/28 00:00:06;;;;;;;18.40;6.07;;;5.00;99.90;;;;;;5018440;28;20052;-74
2022/04/28 00:02:33;;;;;;;19.83;6.57;;;4.60;99.90;;;;;;5018469;28;20057;-74
2022/04/28 00:04:59;;;;;;;;;;;4.60;99.90;;;;;;5035017;28;20056;-75
2022/04/28 00:07:25;;;;;;;26.45;6.25;;;4.60;99.90;;;;;;5034656;28;19927;-76
2022/04/28 00:09:51;;;;;;;20.58;6.28;;;4.60;99.90;;;;;;5033824;28;20061;-75
2022/04/28 00:40:36;;;;;;;14.55;5.93;;;4.30;99.90;;;;;;5279667;22;20501;-76
2022/04/28 00:43:20;;;;;;;20.00;6.03;;;4.30;99.90;;;;;;5016487;28;20056;-74
2022/04/28 00:45:47;;;;;;;20.83;5.68;;;4.30;99.90;;;;;;5032285;28;20209;-74
2022/04/28 00:51:00;;;;;;;17.65;6.20;;;4.20;99.90;;;;;;5015313;28;20423;-76
2022/04/28 00:53:29;;;;;;;21.65;6.05;;;4.10;99.90;;;;;;5031119;28;20049;-75
2022/04/28 00:55:57;;;;;;;20.02;6.28;;;4.10;99.90;;;;;;5012880;28;20050;-75
2022/04/28 00:58:24;;;;;;;23.42;6.80;;;4.00;99.90;;;;;;5031267;28;20057;-75
2022/04/28 01:00:50;;;;;;;17.58;5.85;;;4.00;99.90;;;;;;5028939;28;20041;-74
2022/04/28 01:03:16;;;;;;;19.30;6.30;;;4.00;99.90;;;;;;5000694;28;20447;-74
2022/04/28 01:05:42;;;;;;;24.73;6.53;;;4.00;99.90;;;;;;5033246;28;20050;-74
2022/04/28 01:08:08;;;;;;;22.83;6.70;;;4.00;99.90;;;;;;5034596;28;20053;-75
2022/04/28 01:10:37;;;;;;;19.20;6.38;;;4.00;99.90;;;;;;5026812;28;20041;-74
2022/04/28 01:13:04;;;;;;;19.33;5.95;;;4.00;99.90;;;;;;5054085;28;20049;-75
2022/04/28 01:15:41;;;;;;;21.23;6.10;;;4.00;99.90;;;;;;5053891;28;20041;-75
2022/04/28 01:18:06;;;;;;;17.33;6.70;;;4.00;99.90;;;;;;5054152;28;20397;-75
2022/04/28 01:20:32;;;;;;;18.17;6.50;;;4.00;99.90;;;;;;5035565;28;20049;-74
2022/04/28 01:22:58;;;;;;;18.73;6.03;;;4.00;99.90;;;;;;5053309;28;20422;-75
2022/04/28 01:25:24;;;;;;;29.42;7.63;;;4.00;99.90;;;;;;5019287;28;20098;-73
2022/04/28 01:27:50;;;;;;;21.92;6.43;;;4.00;99.90;;;;;;5052198;28;20084;-74
2022/04/28 01:30:15;;;;;;;19.80;6.18;;;4.00;99.90;;;;;;5035702;28;20060;-75
2022/04/28 01:32:42;;;;;;;26.20;6.18;;;3.90;99.90;;;;;;5053504;28;20052;-76
2022/04/28 01:35:08;;;;;;;19.63;6.13;;;4.00;99.90;;;;;;5018752;28;20374;-74
2022/04/28 01:37:34;;;;;;;24.30;6.88;;;4.00;99.90;;;;;;5036219;28;20558;-74
2022/04/28 01:40:00;;;;;;;26.33;6.72;;;4.00;99.90;;;;;;5037584;28;20268;-73
2022/04/28 01:42:26;;;;;;;21.90;7.88;;;3.90;99.90;;;;;;5033952;28;20095;-75
2022/04/28 01:44:52;;;;;;;28.02;8.15;;;3.80;99.90;;;;;;5033312;28;20046;-75
2022/04/28 01:47:18;;;;;;;25.85;7.47;;;3.90;99.90;;;;;;5016034;28;20064;-75
2022/04/28 01:49:44;;;;;;;24.10;8.40;;;3.90;99.90;;;;;;5032136;28;20111;-77
2022/04/28 01:54:58;;;;;;;24.08;8.55;;;3.90;99.90;;;;;;5031521;28;20041;-73
2022/04/28 01:57:29;;;;;;;20.67;7.57;;;3.80;99.90;;;;;;5033206;28;20041;-74
2022/04/28 01:59:57;;;;;;;28.73;7.43;;;3.80;99.90;;;;;;5015316;28;20045;-75
2022/04/28 02:02:23;;;;;;;22.10;7.05;;;3.70;99.90;;;;;;5015907;28;20049;-74
2022/04/28 02:04:50;;;;;;;20.17;6.60;;;3.70;99.90;;;;;;5031739;28;20056;-75
2022/04/28 02:07:16;;;;;;;23.30;6.28;;;3.60;99.90;;;;;;4999406;28;20331;-75
2022/04/28 02:09:43;;;;;;;19.73;6.28;;;3.40;99.90;;;;;;5032918;28;20069;-75
2022/04/28 02:12:10;;;;;;;25.85;7.60;;;3.60;99.90;;;;;;5014525;28;20049;-75
2022/04/28 02:14:36;;;;;;;22.92;7.20;;;3.60;99.90;;;;;;4997713;28;20037;-73
2022/04/28 02:17:06;;;;;;;25.30;7.28;;;3.70;99.90;;;;;;5032719;28;20041;-73
2022/04/28 02:19:34;;;;;;;23.65;7.00;;;3.60;99.90;;;;;;5031929;28;20133;-74
2022/04/28 02:22:03;;;;;;;21.38;6.60;;;3.50;99.90;;;;;;5032675;28;20401;-75
2022/04/28 02:24:29;;;;;;;21.95;7.38;;;3.60;99.90;;;;;;5032792;28;20085;-75
2022/04/28 02:26:55;;;;;;;20.02;7.13;;;3.50;99.90;;;;;;5014584;28;20103;-74
2022/04/28 02:29:21;;;;;;;21.10;6.93;;;3.40;99.90;;;;;;4998648;28;20051;-75
2022/04/28 02:31:46;;;;;;;25.40;7.35;;;4.00;99.90;;;;;;5036623;28;20069;-75
2022/04/28 02:34:12;;;;;;;26.67;7.85;;;3.40;99.90;;;;;;5017493;28;20045;-76
2022/04/28 02:36:38;;;;;;;25.00;7.22;;;3.30;99.90;;;;;;5001496;28;20460;-73
2022/04/28 02:39:04;;;;;;;23.52;7.30;;;3.30;99.90;;;;;;5017691;28;20057;-76
2022/04/28 02:41:30;;;;;;;17.48;7.00;;;3.30;99.90;;;;;;5017163;28;20060;-75
2022/04/28 02:43:56;;;;;;;22.90;6.65;;;3.30;99.90;;;;;;5016272;28;20045;-75
2022/04/28 02:46:21;;;;;;;23.95;6.65;;;3.10;99.90;;;;;;5033022;28;20048;-75
2022/04/28 02:48:49;;;;;;;20.90;6.80;;;3.20;99.90;;;;;;5016997;28;20053;-75
2022/04/28 02:51:15;;;;;;;26.98;7.68;;;3.10;99.90;;;;;;5033628;28;20045;-75
2022/04/28 02:53:41;;;;;;;21.60;7.22;;;3.00;99.90;;;;;;5016391;28;20101;-74
2022/04/28 02:56:07;;;;;;;22.45;7.15;;;3.00;99.90;;;;;;5015996;28;20080;-75
2022/04/28 02:58:34;;;;;;;21.45;7.00;;;3.00;99.90;;;;;;5017536;28;20049;-76
2022/04/28 03:01:01;;;;;;;23.58;7.68;;;2.80;99.90;;;;;;5017287;28;20065;-75
2022/04/28 03:03:27;;;;;;;22.83;7.07;;;3.00;99.90;;;;;;5000681;28;20049;-75
2022/04/28 03:11:22;;;;;;;21.65;6.60;;;3.00;99.90;;;;;;5036253;28;20053;-76
2022/04/28 03:13:47;;;;;;;19.08;7.00;;;2.90;99.90;;;;;;5034181;28;20440;-75
2022/04/28 03:16:13;;;;;;;26.75;7.15;;;2.90;99.90;;;;;;5016797;28;20084;-76
2022/04/28 03:18:39;;;;;;;20.50;7.30;;;2.90;99.90;;;;;;5033693;28;20048;-76
2022/04/28 03:21:08;;;;;;;24.98;6.75;;;2.90;99.90;;;;;;5033635;28;20477;-76
2022/04/28 03:23:34;;;;;;;19.77;7.05;;;2.80;99.90;;;;;;4999522;28;20060;-75
2022/04/28 03:25:59;;;;;;;27.95;6.75;;;2.80;99.90;;;;;;5033278;28;20396;-75
2022/04/28 03:28:25;;;;;;;25.63;7.18;;;2.80;99.90;;;;;;5018602;28;20061;-74
2022/04/28 03:30:51;;;;;;;23.25;7.30;;;2.70;99.90;;;;;;5004623;28;20107;-74
2022/04/28 03:33:18;;;;;;;20.25;7.10;;;2.70;99.90;;;;;;5020739;28;20052;-76
2022/04/28 03:35:44;;;;;;;28.30;7.60;;;2.70;99.90;;;;;;5035431;28;20033;-75
2022/04/28 03:38:12;;;;;;;17.60;6.45;;;2.70;99.90;;;;;;5033007;28;20129;-75
2022/04/28 03:40:41;;;;;;;23.25;7.25;;;2.60;99.90;;;;;;5016499;28;20465;-76
2022/04/28 03:43:09;;;;;;;22.70;7.22;;;2.70;99.90;;;;;;5034591;28;20096;-76
2022/04/28 03:45:36;;;;;;;25.23;7.28;;;2.70;99.90;;;;;;5034985;28;20101;-74
2022/04/28 03:48:03;;;;;;;24.83;6.95;;;2.70;99.90;;;;;;5019408;28;20053;-74
2022/04/28 03:50:30;;;;;;;21.77;7.20;;;2.70;99.90;;;;;;5044539;28;20061;-74
2022/04/28 03:52:59;;;;;;;24.42;7.22;;;2.70;99.90;;;;;;5030017;28;20046;-75
2022/04/28 03:55:25;;;;;;;20.77;7.65;;;2.80;99.90;;;;;;5050640;28;20053;-76
2022/04/28 03:57:52;;;;;;;24.25;6.60;;;2.80;99.90;;;;;;5053850;28;20057;-74
2022/04/28 04:00:19;;;;;;;21.73;7.38;;;2.90;99.90;;;;;;5054581;28;20037;-75
2022/04/28 04:02:45;;;;;;;26.33;7.38;;;2.90;99.90;;;;;;5036783;28;20064;-75
2022/04/28 04:05:11;;;;;;;19.83;6.80;;;3.00;99.90;;;;;;5052733;28;20465;-76
2022/04/28 04:07:38;;;;;;;21.67;7.10;;;3.00;99.90;;;;;;5033956;28;20050;-76
2022/04/28 04:10:06;;;;;;;21.52;6.95;;;3.10;99.90;;;;;;5033316;28;20058;-75
2022/04/28 04:12:33;;;;;;;21.30;6.78;;;3.20;99.90;;;;;;5031149;28;20081;-76
2022/04/28 04:14:59;;;;;;;;;;;3.30;99.90;;;;;;5050819;28;20049;-74
2022/04/28 04:17:25;;;;;;;21.85;5.55;;;3.50;99.90;;;;;;5050594;28;19947;-74
2022/04/28 04:19:50;;;;;;;19.08;7.75;;;3.70;99.90;;;;;;5047479;28;20152;-75
2022/04/28 04:22:16;;;;;;;22.23;7.45;;;3.90;99.90;;;;;;5039378;28;20053;-74
2022/04/28 04:24:42;;;;;;;24.17;6.75;;;4.10;99.90;;;;;;5022023;28;20088;-76
2022/04/28 04:27:08;;;;;;;20.67;7.05;;;4.20;99.90;;;;;;5037527;28;20111;-74
2022/04/28 04:29:33;;;;;;;22.80;7.22;;;4.30;99.90;;;;;;5036973;28;20042;-74
2022/04/28 04:32:18;;;;;;;17.08;6.93;;;4.40;99.90;;;;;;5022475;28;20080;-75
2022/04/28 04:34:46;;;;;;;24.63;6.55;;;4.60;99.90;;;;;;5034186;28;20099;-76
2022/04/28 04:37:12;;;;;;;26.95;6.88;;;4.60;99.90;;;;;;5018158;28;20049;-75
2022/04/28 04:39:38;;;;;;;22.60;7.10;;;4.70;99.90;;;;;;5018534;28;20366;-75
2022/04/28 04:42:04;;;;;;;25.77;7.32;;;4.80;99.90;;;;;;5035145;28;20045;-75
2022/04/28 04:44:30;;;;;;;21.10;4.47;;;4.90;99.90;;;;;;5036847;28;20052;-75
2022/04/28 04:46:59;;;;;;;26.50;6.80;;;5.00;99.90;;;;;;5019238;28;20111;-75
2022/04/28 04:49:24;;;;;;;21.30;6.95;;;5.10;99.90;;;;;;5018528;28;20080;-76
2022/04/28 04:51:50;;;;;;;23.92;6.75;;;5.20;99.90;;;;;;5037133;28;20426;-75
2022/04/28 04:54:16;;;;;;;21.50;6.50;;;5.30;99.90;;;;;;5037469;28;20071;-75
2022/04/28 04:56:42;;;;;;;18.05;6.63;;;5.40;99.90;;;;;;5037251;28;20046;-76
2022/04/28 04:59:07;;;;;;;16.90;6.35;;;5.40;99.90;;;;;;5016814;28;20417;-73
2022/04/28 05:01:33;;;;;;;15.98;6.75;;;5.50;99.90;;;;;;5018363;28;20096;-74
2022/04/28 05:03:59;;;;;;;17.10;6.75;;;5.60;99.90;;;;;;5035535;28;20497;-74
2022/04/28 05:06:25;;;;;;;23.75;6.78;;;5.60;99.90;;;;;;5017894;28;20049;-73
2022/04/28 05:08:51;;;;;;;17.48;5.97;;;5.60;99.90;;;;;;5035318;28;20045;-75
2022/04/28 05:11:17;;;;;;;18.65;6.70;;;5.70;99.90;;;;;;5035167;28;20049;-74
2022/04/28 05:13:43;;;;;;;19.63;6.72;;;5.80;99.90;;;;;;5017504;28;20049;-74
2022/04/28 05:16:09;;;;;;;17.75;6.28;;;5.80;99.90;;;;;;5017744;28;20042;-73
2022/04/28 05:18:35;;;;;;;19.77;7.18;;;5.80;99.90;;;;;;5035119;28;20531;-74
2022/04/28 05:21:00;;;;;;;22.88;7.05;;;5.90;99.90;;;;;;5034900;28;20050;-74
2022/04/28 05:23:26;;;;;;;19.52;7.00;;;6.00;99.90;;;;;;5016886;28;20103;-74
2022/04/28 05:25:52;;;;;;;17.83;6.85;;;6.10;99.90;;;;;;5017368;28;20048;-74
2022/04/28 05:28:18;;;;;;;20.05;7.22;;;6.10;99.90;;;;;;5017993;28;20046;-74
2022/04/28 05:30:43;;;;;;;22.90;6.78;;;6.20;99.90;;;;;;5035226;28;20067;-74
2022/04/28 05:33:09;;;;;;;21.02;7.28;;;6.20;99.90;;;;;;5034795;28;20366;-74
2022/04/28 05:35:38;;;;;;;23.52;7.40;;;6.40;99.90;;;;;;5017077;28;20466;-74
2022/04/28 05:38:04;;;;;;;28.58;8.27;;;6.40;99.90;;;;;;5034649;28;20101;-74
2022/04/28 05:40:30;;;;;;;24.50;9.27;;;6.40;99.90;;;;;;5034935;28;20466;-74
2022/04/28 05:45:43;;;;;;;28.13;8.27;;;6.30;99.90;;;;;;5035226;28;20483;-74
2022/04/28 05:48:09;;;;;;;23.30;7.65;;;6.30;99.90;;;;;;5034631;28;20149;-73
2022/04/28 05:50:36;;;;;;;19.63;8.00;;;6.30;99.90;;;;;;5034651;28;20085;-74
2022/04/28 05:53:02;;;;;;;22.77;7.45;;;6.40;99.90;;;;;;5016961;28;20308;-74
2022/04/28 05:55:27;;;;;;;19.15;6.65;;;6.50;99.90;;;;;;5034420;28;20060;-74
2022/04/28 05:57:53;;;;;;;18.52;7.35;;;6.60;99.90;;;;;;5016875;28;20060;-74
2022/04/28 06:00:19;;;;;;;21.75;8.68;;;6.70;99.90;;;;;;5034658;28;20099;-73
2022/04/28 06:02:45;;;;;;;16.20;7.47;;;6.80;99.90;;;;;;5016762;28;20458;-74
2022/04/28 06:05:11;;;;;;;18.15;7.20;;;6.80;99.90;;;;;;5033967;28;20081;-74
2022/04/28 06:07:37;;;;;;;21.60;7.45;;;6.80;99.90;;;;;;5034353;28;20088;-75
2022/04/28 06:10:03;;;;;;;20.60;8.30;;;6.90;99.90;;;;;;5034839;28;20045;-75
2022/04/28 06:12:29;;;;;;;41.75;8.07;;;6.90;99.90;;;;;;5034118;28;20477;-75
2022/04/28 06:14:55;;;;;;;24.20;7.18;;;6.80;99.90;;;;;;5000180;28;20077;-76
2022/04/28 06:17:21;;;;;;;26.80;7.57;;;7.00;99.90;;;;;;5034092;28;20064;-75
2022/04/28 06:19:47;;;;;;;20.17;6.63;;;7.10;99.90;;;;;;5034090;28;20054;-75
2022/04/28 06:22:13;;;;;;;22.27;6.95;;;7.20;99.90;;;;;;5034072;28;20444;-75
2022/04/28 06:24:39;;;;;;;18.42;7.28;;;7.30;99.90;;;;;;5000285;28;20372;-75
2022/04/28 06:27:05;;;;;;;21.00;7.85;;;7.40;99.90;;;;;;5034334;28;20517;-75
2022/04/28 06:29:31;;;;;;;19.38;7.35;;;7.60;99.90;;;;;;5033486;28;20466;-74
2022/04/28 06:31:57;;;;;;;19.05;7.03;;;7.60;99.90;;;;;;5033173;28;20051;-74
2022/04/28 06:34:23;;;;;;;26.65;8.07;;;7.70;99.90;;;;;;5034021;28;20037;-75
2022/04/28 06:36:48;;;;;;;18.92;6.38;;;7.70;99.90;;;;;;5033270;28;20051;-75
2022/04/28 06:39:14;;;;;;;18.35;7.35;;;7.70;99.90;;;;;;5033462;28;20049;-74
2022/04/28 06:41:40;;;;;;;23.50;6.50;;;7.80;99.90;;;;;;5016519;28;20273;-75
2022/04/28 06:44:06;;;;;;;26.27;6.82;;;8.00;99.90;;;;;;5033630;28;20057;-75
2022/04/28 06:46:32;;;;;;;30.92;7.25;;;8.00;99.90;;;;;;5033456;28;20051;-75
2022/04/28 06:48:58;;;;;;;21.13;6.97;;;8.10;99.90;;;;;;5033771;28;20050;-76
2022/04/28 06:51:24;;;;;;;25.20;7.28;;;8.20;99.90;;;;;;5033378;28;20477;-75
2022/04/28 06:53:49;;;;;;;23.45;8.55;;;8.40;99.90;;;;;;5033476;28;20394;-76
2022/04/28 06:56:16;;;;;;;21.65;7.20;;;8.40;99.90;;;;;;5033429;28;20048;-73
2022/04/28 06:58:42;;;;;;;25.67;7.30;;;8.50;99.90;;;;;;5033036;28;20053;-75
2022/04/28 07:01:08;;;;;;;22.83;7.50;;;8.60;99.90;;;;;;5033873;28;20049;-74
2022/04/28 07:03:34;;;;;;;22.85;6.47;;;8.70;99.90;;;;;;4999210;28;20513;-75
2022/04/28 07:06:00;;;;;;;22.27;7.40;;;8.80;99.90;;;;;;5033157;28;20037;-75
2022/04/28 07:08:26;;;;;;;17.83;7.10;;;8.80;99.90;;;;;;5033149;28;20460;-75
2022/04/28 07:10:51;;;;;;;25.52;8.20;;;9.00;99.90;;;;;;5033165;28;20142;-75
2022/04/28 07:13:17;;;;;;;21.80;7.82;;;9.10;99.90;;;;;;4998935;28;20045;-73
2022/04/28 07:15:43;;;;;;;18.35;7.25;;;9.20;99.90;;;;;;5032581;28;20132;-75
2022/04/28 07:18:09;;;;;;;20.42;6.25;;;9.30;99.90;;;;;;5033635;28;20045;-74
2022/04/28 07:20:36;;;;;;;14.10;5.40;;;9.20;99.90;;;;;;5031796;28;20087;-75
2022/04/28 07:23:02;;;;;;;15.43;6.00;;;9.20;99.90;;;;;;5032838;28;20049;-74
2022/04/28 07:25:31;;;;;;;16.95;5.13;;;9.30;99.90;;;;;;5015463;28;20434;-74
2022/04/28 07:27:58;;;;;;;17.15;4.90;;;9.30;99.90;;;;;;5031517;28;20049;-74
2022/04/28 07:30:24;;;;;;;13.75;4.75;;;9.30;99.90;;;;;;5032744;28;20041;-74
2022/04/28 07:32:51;;;;;;;16.58;4.57;;;9.20;99.90;;;;;;5032928;28;20052;-75
2022/04/28 07:35:19;;;;;;;13.50;4.78;;;9.50;99.90;;;;;;5015195;28;20486;-74
2022/04/28 07:37:45;;;;;;;12.60;4.10;;;9.50;99.90;;;;;;5033014;28;20053;-75
2022/04/28 07:40:11;;;;;;;16.02;5.10;;;9.60;99.90;;;;;;5032025;28;20124;-75
2022/04/28 07:42:37;;;;;;;11.85;4.70;;;9.60;99.90;;;;;;5032587;28;20409;-75
2022/04/28 07:45:06;;;;;;;15.63;4.78;;;9.60;99.90;;;;;;5032595;28;20064;-74
2022/04/28 07:47:31;;;;;;;15.60;5.93;;;9.80;99.90;;;;;;5032347;28;20046;-74
2022/04/28 07:49:57;;;;;;;16.60;6.57;;;9.70;99.90;;;;;;5014785;28;20052;-73
2022/04/28 07:52:23;;;;;;;20.52;6.70;;;9.90;99.90;;;;;;5032204;28;20405;-73
2022/04/28 07:54:49;;;;;;;18.65;6.70;;;9.80;99.90;;;;;;5014678;28;20057;-73
2022/04/28 07:57:15;;;;;;;16.90;6.63;;;9.70;99.90;;;;;;5014317;28;20051;-73
2022/04/28 07:59:42;;;;;;;21.40;7.85;;;10.00;99.90;;;;;;5014540;28;20099;-73
2022/04/28 08:02:11;;;;;;;25.73;6.85;;;10.20;99.90;;;;;;5031950;28;20129;-75
2022/04/28 08:04:37;;;;;;;17.70;5.63;;;10.30;99.90;;;;;;5030995;28;20093;-74
2022/04/28 08:07:03;;;;;;;21.33;7.63;;;10.20;99.90;;;;;;5032244;28;20068;-75
2022/04/28 08:09:30;;;;;;;19.05;6.60;;;10.20;99.90;;;;;;5014739;28;20046;-74
2022/04/28 08:11:56;;;;;;;18.02;5.88;;;10.20;99.90;;;;;;5034182;28;20179;-75
2022/04/28 08:14:23;;;;;;;19.63;5.82;;;10.50;99.90;;;;;;5036360;28;20505;-75
2022/04/28 08:16:50;;;;;;;16.45;4.90;;;10.70;99.90;;;;;;5019023;28;20239;-73
2022/04/28 08:19:15;;;;;;;12.07;5.30;;;11.00;99.90;;;;;;5036901;28;20393;-74
2022/04/28 08:21:41;;;;;;;16.02;5.55;;;10.80;99.90;;;;;;5034949;28;20129;-74
2022/04/28 08:24:07;;;;;;;14.20;4.85;;;10.50;99.90;;;;;;5019312;28;20053;-74
2022/04/28 08:26:33;;;;;;;15.27;5.20;;;10.50;99.90;;;;;;5036119;28;20275;-74
2022/04/28 08:28:58;;;;;;;20.23;5.38;;;10.50;99.90;;;;;;5036577;28;20539;-74
2022/04/28 08:31:24;;;;;;;14.13;4.90;;;10.60;99.90;;;;;;5036066;28;20469;-74
2022/04/28 08:33:50;;;;;;;20.83;5.53;;;10.50;99.90;;;;;;5018212;28;20527;-74
2022/04/28 08:36:16;;;;;;;14.77;4.85;;;10.60;99.90;;;;;;5017823;28;20038;-74
2022/04/28 08:38:42;;;;;;;16.50;4.80;;;10.40;99.90;;;;;;5035971;28;20128;-73
2022/04/28 08:41:16;;;;;;;15.63;4.65;;;10.40;99.90;;;;;;5036312;28;20369;-74
2022/04/28 08:43:43;;;;;;;14.30;4.78;;;10.80;99.90;;;;;;5035723;28;20042;-73
2022/04/28 08:48:55;;;;;;;18.08;4.90;;;10.60;99.90;;;;;;5035729;28;20492;-74
2022/04/28 08:51:26;;;;;;;13.38;4.70;;;10.80;99.90;;;;;;5035371;28;20053;-74
2022/04/28 08:53:55;;;;;;;12.05;4.43;;;11.10;99.90;;;;;;5036026;28;20046;-75
2022/04/28 08:56:22;;;;;;;11.02;4.38;;;11.30;99.90;;;;;;5035406;28;20099;-75
2022/04/28 08:58:48;;;;;;;15.70;4.95;;;11.40;99.90;;;;;;5035502;28;20053;-75
2022/04/28 09:01:14;;;;;;;21.02;6.47;;;11.50;99.90;;;;;;5001220;28;20436;-74
2022/04/28 09:03:41;;;;;;;16.15;4.80;;;11.70;99.90;;;;;;5035439;28;20049;-74
2022/04/28 09:06:21;;;;;;;12.20;3.88;;;11.90;99.90;;;;;;5035411;28;20060;-74
2022/04/28 09:08:48;;;;;;;11.20;4.10;;;12.10;99.90;;;;;;5035312;28;20046;-74
2022/04/28 09:11:25;;;;;;;13.73;4.80;;;12.10;99.90;;;;;;5002128;28;20389;-74
2022/04/28 09:14:12;;;;;;;12.95;4.53;;;11.50;99.90;;;;;;5018493;28;20167;-74
2022/04/28 09:17:03;;;;;;;12.07;4.18;;;11.70;99.90;;;;;;5001546;28;20048;-75
2022/04/28 09:19:35;;;;;;;10.70;3.72;;;12.00;99.90;;;;;;5035235;28;20132;-74
2022/04/28 09:22:06;;;;;;;11.25;3.83;;;12.20;99.90;;;;;;5034964;28;20493;-74
2022/04/28 09:24:33;;;;;;;14.38;4.35;;;12.40;99.90;;;;;;5035637;28;20088;-74
2022/04/28 09:26:59;;;;;;;9.52;4.10;;;12.70;99.90;;;;;;5017350;28;20050;-74
2022/04/28 09:29:29;;;;;;;10.02;4.10;;;13.00;99.90;;;;;;5035422;28;20450;-73
2022/04/28 09:31:56;;;;;;;11.63;3.97;;;13.20;99.90;;;;;;5034812;28;20059;-73
2022/04/28 09:34:23;;;;;;;15.38;4.10;;;13.30;99.90;;;;;;5017173;28;20499;-76
2022/04/28 09:36:50;;;;;;;14.98;3.60;;;12.70;99.90;;;;;;5034653;28;20048;-74
2022/04/28 09:44:53;;;;;;;10.80;4.00;;;12.30;99.90;;;;;;5017528;28;20065;-75
2022/04/28 09:47:20;;;;;;;9.18;2.95;;;11.90;99.90;;;;;;5017968;28;20046;-75
2022/04/28 09:49:53;;;;;;;10.85;3.08;;;12.10;99.90;;;;;;5016894;28;20505;-73
2022/04/28 09:52:20;;;;;;;12.18;2.97;;;12.40;99.90;;;;;;5034834;28;20421;-74
2022/04/28 09:54:47;;;;;;;16.98;3.80;;;12.70;99.90;;;;;;5034343;28;20092;-76
2022/04/28 09:57:14;;;;;;;8.55;3.20;;;12.90;99.90;;;;;;5000785;28;20049;-75
2022/04/28 09:59:41;;;;;;;;;;;13.10;99.90;;;;;;5034819;28;20089;-74
2022/04/28 10:02:15;;;;;;;;;;;13.30;99.90;;;;;;5034736;28;20308;-73
2022/04/28 10:04:42;;;;;;;10.48;3.22;;;13.00;99.90;;;;;;5034402;28;19925;-76
2022/04/28 10:07:09;;;;;;;13.60;3.40;;;13.10;99.90;;;;;;5016835;28;20068;-74
2022/04/28 10:09:36;;;;;;;17.02;3.58;;;12.70;99.90;;;;;;5000428;28;20548;-75
2022/04/28 10:12:05;;;;;;;14.32;3.63;;;12.70;99.90;;;;;;5034892;28;20045;-74
2022/04/28 10:14:34;;;;;;;14.57;3.15;;;12.70;99.90;;;;;;5034853;28;20132;-75
2022/04/28 10:17:01;;;;;;;14.00;3.03;;;12.60;99.90;;;;;;5034105;28;20052;-73
2022/04/28 10:19:37;;;;;;;18.67;3.45;;;12.90;99.90;;;;;;5016533;28;20057;-75
2022/04/28 10:22:07;;;;;;;11.40;2.97;;;13.00;99.90;;;;;;5034302;28;20334;-75
2022/04/28 10:33:01;;;;;;;14.30;2.85;;;14.40;99.90;;;;;;5016124;28;20057;-73
2022/04/28 10:35:35;;;;;;;8.80;2.60;;;14.40;99.90;;;;;;5015153;28;20093;-73
2022/04/28 10:38:04;;;;;;;10.85;3.03;;;14.10;97.70;;;;;;5033544;28;20049;-74
2022/04/28 10:40:37;;;;;;;11.35;3.60;;;13.70;99.00;;;;;;5015602;28;20112;-73
2022/04/28 10:43:03;;;;;;;9.77;2.70;;;13.60;99.30;;;;;;5032374;28;20103;-74
2022/04/28 10:45:41;;;;;;;8.77;2.50;;;13.40;99.90;;;;;;5032801;28;20041;-74
2022/04/28 10:51:05;;;;;;;8.82;2.33;;;13.50;99.00;;;;;;5033427;28;20060;-73
2022/04/28 10:53:34;;;;;;;11.30;2.40;;;13.80;99.20;;;;;;5033541;28;20154;-74
2022/04/28 10:56:12;;;;;;;10.07;2.20;;;14.10;99.30;;;;;;5033585;28;20041;-73
2022/04/28 10:58:38;;;;;;;11.15;2.65;;;14.10;97.90;;;;;;5033921;28;20378;-73
2022/04/28 11:01:04;;;;;;;9.88;2.45;;;14.10;98.40;;;;;;5016046;28;20092;-73
2022/04/28 11:03:55;;;;;;;10.98;2.72;;;13.80;96.30;;;;;;5033192;28;20041;-73
2022/04/28 11:06:28;;;;;;;12.27;2.92;;;13.90;96.30;;;;;;5016112;28;20191;-74
2022/04/28 11:08:55;;;;;;;10.52;2.83;;;14.20;96.80;;;;;;5016305;28;20061;-74
2022/04/28 11:11:24;;;;;;;8.50;2.63;;;13.40;96.40;;;;;;5031681;28;20468;-75
2022/04/28 11:13:57;;;;;;;13.90;2.97;;;13.80;96.60;;;;;;5016255;28;20049;-74
2022/04/28 11:16:24;;;;;;;11.43;2.47;;;13.70;96.30;;;;;;5032710;28;20482;-74
2022/04/28 11:18:50;;;;;;;;;;;13.60;96.80;;;;;;5032948;28;20111;-74
2022/04/28 11:21:16;;;;;;;8.47;2.53;;;13.90;97.10;;;;;;5032799;28;19928;-76
2022/04/28 11:23:47;;;;;;;8.82;2.67;;;13.90;95.90;;;;;;5015087;28;20512;-74
2022/04/28 11:26:14;;;;;;;12.68;2.67;;;13.90;96.50;;;;;;5016028;28;20536;-74
2022/04/28 11:28:41;;;;;;;8.27;2.83;;;14.20;96.70;;;;;;5034346;28;20056;-73
2022/04/28 11:31:12;;;;;;;11.52;3.05;;;13.70;95.70;;;;;;5016532;28;20402;-75
2022/04/28 11:33:43;;;;;;;9.48;3.55;;;13.90;95.90;;;;;;5033389;28;20456;-75
2022/04/28 11:36:28;;;;;;;11.25;3.65;;;14.20;95.00;;;;;;5015130;28;20362;-76
2022/04/28 11:39:02;;;;;;;6.95;2.97;;;14.10;94.70;;;;;;5033068;28;20049;-75
2022/04/28 11:41:31;;;;;;;12.00;3.00;;;13.80;95.20;;;;;;5015636;28;20053;-75
2022/04/28 11:44:17;;;;;;;7.32;2.90;;;14.20;95.00;;;;;;5015282;28;20054;-74
2022/04/28 11:46:49;;;;;;;12.38;3.25;;;14.40;94.00;;;;;;5031283;28;20053;-75
2022/04/28 11:49:17;;;;;;;14.68;3.55;;;14.50;94.80;;;;;;5032787;28;20053;-73
2022/04/28 11:51:43;;;;;;;9.73;3.42;;;14.10;94.90;;;;;;5032420;28;20190;-74
2022/04/28 11:54:23;;;;;;;11.93;3.47;;;14.10;95.80;;;;;;5014783;28;20134;-73
2022/04/28 11:56:50;;;;;;;12.35;2.97;;;14.80;94.80;;;;;;5033148;28;20358;-76
2022/04/28 11:59:16;;;;;;;13.40;3.67;;;14.90;93.80;;;;;;5032884;28;20126;-75
2022/04/28 12:01:44;;;;;;;9.50;3.23;;;15.20;93.50;;;;;;4998989;28;20045;-74
2022/04/28 12:04:11;;;;;;;12.20;3.13;;;15.20;92.90;;;;;;5032435;28;20135;-73
2022/04/28 12:06:37;;;;;;;9.05;3.53;;;15.00;92.10;;;;;;5015326;28;20053;-76
2022/04/28 12:14:34;;;;;;;7.97;3.20;;;14.90;93.20;;;;;;5032558;28;20058;-77
2022/04/28 12:19:59;;;;;;;10.77;3.53;;;14.90;92.20;;;;;;5032311;28;20049;-72
2022/04/28 12:22:37;;;;;;;10.60;3.80;;;14.20;92.90;;;;;;5014458;28;20056;-75
2022/04/28 12:25:08;;;;;;;15.10;4.30;;;14.40;92.80;;;;;;5032127;28;20477;-76
2022/04/28 12:27:44;;;;;;;10.52;4.70;;;14.60;92.80;;;;;;5032453;28;20045;-75
2022/04/28 12:30:20;;;;;;;15.27;4.68;;;14.60;93.10;;;;;;5031948;28;20080;-75
2022/04/28 12:32:54;;;;;;;13.20;4.40;;;14.50;93.20;;;;;;5014994;28;20045;-75
2022/04/28 12:35:22;;;;;;;10.05;4.20;;;14.60;93.60;;;;;;5031001;28;20175;-76
2022/04/28 12:37:54;;;;;;;13.15;4.30;;;14.60;93.40;;;;;;5031665;28;20049;-76
2022/04/28 12:40:20;;;;;;;12.45;4.40;;;14.70;92.50;;;;;;5011045;28;20073;-72
2022/04/28 12:42:48;;;;;;;13.95;4.45;;;14.40;92.40;;;;;;4994951;28;20402;-76
2022/04/28 12:45:16;;;;;;;10.85;4.47;;;14.60;92.30;;;;;;4995005;28;20077;-75
2022/04/28 12:47:43;;;;;;;12.65;4.68;;;14.10;91.60;;;;;;4994970;28;20057;-75
2022/04/28 12:50:20;;;;;;;15.77;4.97;;;13.90;92.40;;;;;;5012332;28;20054;-76
2022/04/28 12:52:45;;;;;;;;;;;14.30;92.30;;;;;;5012487;28;20046;-74
2022/04/28 12:55:11;;;;;;;17.93;5.07;;;14.20;92.00;;;;;;4994518;28;20397;-74
2022/04/28 12:57:37;;;;;;;73.32;9.52;;;13.80;92.70;;;;;;5013453;28;20060;-75
2022/04/28 13:00:05;;;;;;;13.65;4.47;;;14.00;93.00;;;;;;5014669;28;20072;-75
2022/04/28 13:02:33;;;;;;;15.77;4.85;;;14.10;93.00;;;;;;5014848;28;20042;-76
2022/04/28 13:05:09;;;;;;;;;;;14.00;92.90;;;;;;5016633;28;20153;-76
2022/04/28 13:07:35;;;;;;;10.77;4.80;;;14.00;93.10;;;;;;5015616;28;20203;-75
2022/04/28 13:10:01;;;;;;;14.23;5.05;;;14.30;93.10;;;;;;4997948;28;20056;-77
2022/04/28 13:12:26;;;;;;;13.45;4.30;;;14.70;92.70;;;;;;5015501;28;20045;-74
2022/04/28 13:14:52;;;;;;;19.85;4.60;;;15.00;92.00;;;;;;4998210;28;20110;-74
2022/04/28 13:17:19;;;;;;;12.00;4.03;;;14.80;91.10;;;;;;4998448;28;20041;-75
2022/04/28 13:19:44;;;;;;;11.05;3.85;;;14.50;92.40;;;;;;5015472;28;20517;-75
2022/04/28 13:22:10;;;;;;;11.32;4.25;;;14.80;92.40;;;;;;5014777;28;20046;-76
2022/04/28 13:24:36;;;;;;;12.32;4.05;;;14.90;92.00;;;;;;4998097;28;20060;-75
2022/04/28 13:27:02;;;;;;;14.35;4.40;;;14.90;91.90;;;;;;5015557;28;20095;-74
2022/04/28 13:29:28;;;;;;;11.73;4.00;;;14.70;91.40;;;;;;4997649;28;20128;-74
2022/04/28 13:31:54;;;;;;;13.35;3.75;;;14.50;92.20;;;;;;5014310;28;20140;-77
2022/04/28 13:34:20;;;;;;;13.80;4.00;;;14.90;91.90;;;;;;5015731;28;20095;-75
2022/04/28 13:36:45;;;;;;;16.45;4.63;;;14.70;91.60;;;;;;5015515;28;20393;-76
2022/04/28 13:39:12;;;;;;;12.13;4.00;;;14.80;91.60;;;;;;5014834;28;20085;-73
2022/04/28 13:41:38;;;;;;;14.00;3.97;;;14.90;91.60;;;;;;5013813;28;20061;-74
2022/04/28 13:44:06;;;;;;;14.40;3.45;;;14.80;91.60;;;;;;4981474;28;20053;-75
2022/04/28 13:46:32;;;;;;;15.00;3.80;;;14.90;91.30;;;;;;5015004;28;20155;-75
2022/04/28 13:48:58;;;;;;;15.45;4.43;;;14.60;91.60;;;;;;5014861;28;20133;-73
2022/04/28 13:51:24;;;;;;;14.32;3.78;;;14.30;91.60;;;;;;5015489;28;20088;-74
2022/04/28 13:53:49;;;;;;;14.25;4.60;;;14.10;92.40;;;;;;5014916;28;20137;-76
2022/04/28 13:56:15;;;;;;;13.20;4.15;;;14.20;92.20;;;;;;5015051;28;20085;-76